Time;durP1;ratioP1;P1;durP2;ratioP2;P2;SDS_P1;SDS_P2;PMS_P1;PMS_P2;Temp;Humidity;BMP_temperature;BMP_pressure;BME280_temperature;BME280_humidity;BME280_pressure;Samples;Min_cycle;Max_cycle;Signal;HPM_P1;HPM_P2
2022/06/26 00:00:19;;;;;;;16.73;10.30;;;;;;;17.82;100.00;101140.56;5035547;28;20043;-51
2022/06/26 00:02:45;;;;;;;15.18;9.75;;;;;;;17.77;100.00;101149.31;5036899;28;20029;-51
2022/06/26 00:05:11;;;;;;;14.88;9.80;;;;;;;17.69;100.00;101160.28;5036606;28;20178;-49
2022/06/26 00:07:36;;;;;;;13.13;9.40;;;;;;;17.72;100.00;101157.19;5033053;28;20079;-52
2022/06/26 00:10:02;;;;;;;14.07;9.63;;;;;;;17.65;100.00;101156.28;5032761;28;20188;-47
2022/06/26 00:12:28;;;;;;;13.20;9.05;;;;;;;17.57;100.00;101161.88;5036643;28;20032;-52
2022/06/26 00:14:53;;;;;;;12.95;9.38;;;;;;;17.43;100.00;101164.50;5018151;28;20032;-47
2022/06/26 00:17:18;;;;;;;14.68;9.57;;;;;;;17.32;100.00;101155.06;5035948;28;20048;-48
2022/06/26 00:19:44;;;;;;;14.52;10.18;;;;;;;17.25;100.00;101158.78;5036989;28;20384;-51
2022/06/26 00:22:09;;;;;;;15.10;9.82;;;;;;;17.23;100.00;101167.06;5035936;28;20037;-49
2022/06/26 00:24:35;;;;;;;17.42;10.40;;;;;;;17.21;100.00;101165.59;5036511;28;20377;-50
2022/06/26 00:27:06;;;;;;;15.93;11.13;;;;;;;17.15;100.00;101167.22;5035260;28;20056;-49
2022/06/26 00:29:35;;;;;;;19.10;11.20;;;;;;;17.11;100.00;101174.88;5035130;28;20526;-49
2022/06/26 00:32:03;;;;;;;17.13;12.23;;;;;;;17.04;100.00;101176.69;5035622;28;20088;-49
2022/06/26 00:34:28;;;;;;;18.50;12.60;;;;;;;16.97;100.00;101178.50;5018595;28;20032;-50
2022/06/26 00:36:53;;;;;;;18.23;12.50;;;;;;;16.93;100.00;101193.41;5035807;28;20530;-49
2022/06/26 00:39:19;;;;;;;17.27;12.07;;;;;;;16.91;100.00;101195.47;5036355;28;20116;-51
2022/06/26 00:41:45;;;;;;;16.70;12.85;;;;;;;16.88;100.00;101191.28;5035563;28;20040;-50
2022/06/26 00:44:19;;;;;;;20.20;13.02;;;;;;;16.91;100.00;101203.56;5035155;28;20032;-50
2022/06/26 00:46:45;;;;;;;20.33;13.38;;;;;;;16.87;100.00;101192.34;5035224;28;20502;-51
2022/06/26 00:49:11;;;;;;;17.73;12.93;;;;;;;16.89;100.00;101190.28;5036090;28;20028;-52
2022/06/26 00:51:40;;;;;;;23.73;12.40;;;;;;;16.90;100.00;101197.31;5035750;28;20044;-48
2022/06/26 00:54:07;;;;;;;16.13;12.88;;;;;;;16.89;100.00;101201.06;5035356;28;20102;-50
2022/06/26 00:56:34;;;;;;;20.27;13.88;;;;;;;16.86;100.00;101195.22;5035240;28;20112;-49
2022/06/26 00:59:00;;;;;;;20.08;13.82;;;;;;;16.81;100.00;101211.13;5035218;28;20432;-51
2022/06/26 01:01:25;;;;;;;21.70;14.00;;;;;;;16.76;100.00;101207.13;5035068;28;20028;-51
2022/06/26 01:03:50;;;;;;;21.33;14.00;;;;;;;16.74;100.00;101214.59;5036334;28;20032;-51
2022/06/26 01:06:16;;;;;;;21.75;14.52;;;;;;;16.71;100.00;101209.56;5035347;28;20128;-51
2022/06/26 01:08:42;;;;;;;24.50;15.80;;;;;;;16.71;100.00;101216.84;5028944;28;20507;-52
2022/06/26 01:11:17;;;;;;;20.77;14.80;;;;;;;16.70;100.00;101216.00;5015898;28;20221;-49
2022/06/26 01:13:50;;;;;;;21.73;14.52;;;;;;;16.70;100.00;101215.16;5035995;28;20033;-50
2022/06/26 01:16:19;;;;;;;23.10;14.52;;;;;;;16.71;100.00;101212.25;5034154;28;20041;-50
2022/06/26 01:18:48;;;;;;;23.13;15.10;;;;;;;16.70;100.00;101210.63;5035615;28;20546;-50
2022/06/26 01:21:14;;;;;;;22.05;14.85;;;;;;;16.73;100.00;101226.41;5034864;28;20028;-50
2022/06/26 01:23:40;;;;;;;22.20;15.05;;;;;;;16.71;100.00;101228.44;5035583;28;20112;-51
2022/06/26 01:26:05;;;;;;;25.08;14.68;;;;;;;16.70;100.00;101228.63;5034079;28;20036;-49
2022/06/26 01:28:31;;;;;;;24.52;14.93;;;;;;;16.67;100.00;101234.44;5036095;28;20013;-50
2022/06/26 01:30:56;;;;;;;21.67;14.93;;;;;;;16.65;100.00;101228.38;5016795;28;20032;-50
2022/06/26 01:33:22;;;;;;;26.30;15.18;;;;;;;16.67;100.00;101231.75;5034789;28;20078;-50
2022/06/26 01:35:47;;;;;;;26.48;18.30;;;;;;;16.67;100.00;101234.44;5034624;28;20365;-50
2022/06/26 01:38:15;;;;;;;28.00;18.63;;;;;;;16.63;100.00;101239.34;5034696;28;20300;-50
2022/06/26 01:40:43;;;;;;;29.20;20.48;;;;;;;16.56;100.00;101236.63;5034445;28;20469;-49
2022/06/26 01:43:09;;;;;;;33.20;21.15;;;;;;;16.55;100.00;101251.13;5034831;28;20392;-50
2022/06/26 01:45:41;;;;;;;35.88;22.38;;;;;;;16.53;100.00;101247.78;5034235;28;20013;-51
2022/06/26 01:48:06;;;;;;;37.40;22.58;;;;;;;16.52;100.00;101232.63;5033963;28;20167;-52
2022/06/26 01:50:31;;;;;;;39.15;24.42;;;;;;;16.49;100.00;101234.88;5034836;28;20107;-52
2022/06/26 01:52:57;;;;;;;36.88;24.40;;;;;;;16.49;100.00;101229.47;5035059;28;20437;-49
2022/06/26 01:55:22;;;;;;;40.92;24.42;;;;;;;16.49;100.00;101229.47;5034430;28;20289;-51
2022/06/26 01:57:48;;;;;;;45.47;26.10;;;;;;;16.45;100.00;101226.31;5035477;28;20526;-51
2022/06/26 02:00:13;;;;;;;47.42;26.30;;;;;;;16.46;100.00;101229.84;5033917;28;20094;-50
2022/06/26 02:02:39;;;;;;;47.33;26.88;;;;;;;16.49;100.00;101219.50;5015989;28;20163;-51
2022/06/26 02:05:04;;;;;;;47.90;28.15;;;;;;;16.48;100.00;101214.31;5034451;28;20037;-51
2022/06/26 02:07:30;;;;;;;45.40;27.55;;;;;;;16.41;100.00;101209.69;5031567;28;20017;-49
2022/06/26 02:15:23;;;;;;;49.67;28.42;;;;;;;16.42;100.00;101197.03;5033939;28;20228;-51
2022/06/26 02:17:48;;;;;;;50.05;27.75;;;;;;;16.33;100.00;101199.03;5034449;28;20589;-52
2022/06/26 02:20:14;;;;;;;52.35;26.80;;;;;;;16.35;100.00;101205.06;5034726;28;20804;-52
2022/06/26 02:22:39;;;;;;;49.38;28.05;;;;;;;16.35;100.00;101199.66;5034238;28;20040;-48
2022/06/26 02:25:08;;;;;;;47.80;28.42;;;;;;;16.36;100.00;101197.78;5032706;28;20514;-50
2022/06/26 02:27:34;;;;;;;51.05;27.83;;;;;;;16.35;100.00;101191.56;5034758;28;20028;-47
2022/06/26 02:29:59;;;;;;;55.00;29.55;;;;;;;16.36;100.00;101189.72;5033568;28;20170;-49
2022/06/26 02:32:24;;;;;;;55.25;29.85;;;;;;;16.40;100.00;101196.41;5033724;28;20434;-50
2022/06/26 02:34:49;;;;;;;48.33;27.75;;;;;;;16.40;100.00;101194.53;5034874;28;20013;-49
2022/06/26 02:37:15;;;;;;;54.45;30.10;;;;;;;16.40;100.00;101201.81;5033660;28;20493;-47
2022/06/26 02:39:40;;;;;;;55.38;29.58;;;;;;;16.40;100.00;101208.00;5031570;28;20048;-49
2022/06/26 02:42:05;;;;;;;53.80;29.05;;;;;;;16.43;100.00;101214.91;5014162;28;20018;-50
2022/06/26 02:44:31;;;;;;;55.03;29.85;;;;;;;16.36;100.00;101211.28;5013554;28;20021;-48
2022/06/26 02:46:56;;;;;;;60.80;30.73;;;;;;;16.32;100.00;101218.91;5020520;28;20400;-50
2022/06/26 02:49:21;;;;;;;56.20;29.27;;;;;;;16.27;100.00;101224.03;5028742;28;20072;-48
2022/06/26 02:51:47;;;;;;;52.45;28.02;;;;;;;16.17;100.00;101223.50;5026280;28;20490;-50
2022/06/26 02:54:13;;;;;;;57.38;28.65;;;;;;;16.06;100.00;101221.31;5032729;28;20044;-48
2022/06/26 02:56:38;;;;;;;58.88;29.83;;;;;;;15.99;100.00;101230.13;5015459;28;20079;-50
2022/06/26 02:59:03;;;;;;;63.38;28.63;;;;;;;15.96;100.00;101240.44;5019611;28;20056;-48
2022/06/26 03:01:29;;;;;;;59.75;30.40;;;;;;;15.91;100.00;101237.47;5033686;28;20112;-51
2022/06/26 03:03:54;;;;;;;65.05;31.00;;;;;;;15.87;100.00;101242.41;5034112;28;20518;-47
2022/06/26 03:06:19;;;;;;;59.95;30.05;;;;;;;15.81;100.00;101245.84;5033725;28;20032;-48
2022/06/26 03:08:45;;;;;;;71.28;32.75;;;;;;;15.81;100.00;101251.22;5033640;28;20073;-51
2022/06/26 03:11:10;;;;;;;66.32;33.85;;;;;;;15.84;100.00;101254.38;5014520;28;20580;-48
2022/06/26 03:13:35;;;;;;;68.38;33.10;;;;;;;15.73;100.00;101251.28;5034658;28;20083;-49
2022/06/26 03:16:00;;;;;;;66.85;32.45;;;;;;;15.64;100.00;101253.22;5018469;28;20025;-49
2022/06/26 03:18:26;;;;;;;58.28;29.50;;;;;;;15.57;100.00;101258.50;5034029;28;20021;-50
2022/06/26 03:20:51;;;;;;;49.85;26.25;;;;;;;15.50;100.00;101252.19;5034061;28;20463;-47
2022/06/26 03:23:16;;;;;;;50.50;25.75;;;;;;;15.41;100.00;101261.34;5017095;28;20364;-47
2022/06/26 03:25:42;;;;;;;49.63;23.63;;;;;;;15.39;100.00;101258.84;5036340;28;20447;-48
2022/06/26 03:28:07;;;;;;;46.30;23.48;;;;;;;15.32;100.00;101265.97;5037527;28;20803;-48
2022/06/26 03:30:32;;;;;;;49.10;22.60;;;;;;;15.29;100.00;101277.09;5037389;28;20069;-49
2022/06/26 03:32:58;;;;;;;44.47;22.33;;;;;;;15.22;100.00;101277.00;5036829;28;20612;-48
2022/06/26 03:35:23;;;;;;;48.65;21.77;;;;;;;15.22;100.00;101276.16;5023926;28;20526;-49
2022/06/26 03:37:48;;;;;;;43.33;21.40;;;;;;;15.19;100.00;101279.19;5036891;28;20138;-48
2022/06/26 03:40:14;;;;;;;44.63;22.48;;;;;;;15.22;100.00;101278.84;5035766;28;20104;-49
2022/06/26 03:42:39;;;;;;;39.90;20.83;;;;;;;15.16;100.00;101285.81;5037535;28;20510;-51
2022/06/26 03:45:05;;;;;;;43.75;21.05;;;;;;;15.16;100.00;101303.81;5036820;28;20709;-51
2022/06/26 03:47:31;;;;;;;40.78;19.52;;;;;;;15.11;100.00;101296.25;5036182;28;20108;-49
2022/06/26 03:49:56;;;;;;;35.38;19.13;;;;;;;15.10;100.00;101300.81;5024749;28;20166;-49
2022/06/26 03:52:23;;;;;;;39.53;20.02;;;;;;;15.05;100.00;101313.13;5035765;28;20098;-49
2022/06/26 03:54:48;;;;;;;42.35;19.33;;;;;;;15.01;100.00;101314.50;5017383;28;20635;-52
2022/06/26 03:57:14;;;;;;;39.47;19.08;;;;;;;14.97;100.00;101311.34;5036106;28;20043;-48
2022/06/26 03:59:39;;;;;;;39.42;19.08;;;;;;;14.95;100.00;101304.44;5025420;28;20025;-51
2022/06/26 04:02:05;;;;;;;33.15;17.60;;;;;;;14.93;100.00;101307.31;5035402;28;20017;-51
2022/06/26 04:04:30;;;;;;;36.95;17.95;;;;;;;14.91;100.00;101306.66;5036804;28;20063;-47
2022/06/26 04:06:56;;;;;;;37.75;17.92;;;;;;;14.90;100.00;101305.84;5036496;28;20536;-51
2022/06/26 04:09:21;;;;;;;37.05;17.95;;;;;;;14.90;100.00;101300.44;5035537;28;20369;-51
2022/06/26 04:11:46;;;;;;;37.35;17.58;;;;;;;14.87;100.00;101298.13;5037445;28;20033;-48
2022/06/26 04:14:12;;;;;;;38.65;18.45;;;;;;;14.94;100.00;101300.09;5036713;28;20388;-50
2022/06/26 04:16:37;;;;;;;38.03;17.77;;;;;;;14.92;100.00;101301.09;5036170;28;20063;-51
2022/06/26 04:19:02;;;;;;;37.92;17.80;;;;;;;14.91;100.00;101302.09;5036401;28;20033;-51
2022/06/26 04:21:28;;;;;;;36.15;18.20;;;;;;;14.89;100.00;101308.69;5036225;28;20028;-50
2022/06/26 04:23:53;;;;;;;41.55;18.10;;;;;;;14.89;100.00;101311.38;5036700;28;20025;-47
2022/06/26 04:26:18;;;;;;;32.72;17.48;;;;;;;14.85;100.00;101301.97;5035773;28;20032;-47
2022/06/26 04:28:44;;;;;;;32.53;17.13;;;;;;;14.87;100.00;101308.03;5019157;28;20529;-48
2022/06/26 04:31:09;;;;;;;31.17;16.60;;;;;;;14.86;100.00;101320.63;5035258;28;20025;-47
2022/06/26 04:33:35;;;;;;;36.67;16.30;;;;;;;14.85;100.00;101324.34;5036543;28;20013;-51
2022/06/26 04:36:00;;;;;;;35.08;15.73;;;;;;;14.84;100.00;101319.97;5034643;28;20420;-50
2022/06/26 04:38:26;;;;;;;38.15;16.00;;;;;;;14.82;100.00;101335.47;5036883;28;20483;-47
2022/06/26 04:40:51;;;;;;;35.95;15.48;;;;;;;14.79;100.00;101338.50;5035105;28;20025;-50
2022/06/26 04:43:16;;;;;;;33.95;15.85;;;;;;;14.80;100.00;101342.88;5036419;28;20631;-49
2022/06/26 04:45:42;;;;;;;36.50;16.15;;;;;;;14.81;100.00;101357.16;5035508;28;20438;-48
2022/06/26 04:48:07;;;;;;;37.75;16.42;;;;;;;14.83;100.00;101358.63;5035580;28;20033;-49
2022/06/26 04:50:33;;;;;;;35.08;15.95;;;;;;;14.85;100.00;101358.44;5022265;28;20491;-45
2022/06/26 04:52:59;;;;;;;36.97;15.68;;;;;;;14.88;100.00;101369.72;5017893;28;20060;-50
2022/06/26 04:55:24;;;;;;;34.05;15.77;;;;;;;14.93;100.00;101374.56;5033994;28;20051;-47
2022/06/26 04:57:49;;;;;;;33.40;15.13;;;;;;;14.96;100.00;101373.38;5031189;28;20349;-49
2022/06/26 05:00:16;;;;;;;32.70;14.65;;;;;;;15.01;100.00;101379.06;5029102;28;20021;-45
2022/06/26 05:02:41;;;;;;;27.40;14.55;;;;;;;15.05;100.00;101385.75;5035925;28;20166;-45
2022/06/26 05:05:07;;;;;;;35.38;14.93;;;;;;;15.08;100.00;101364.69;5035858;28;20646;-45
2022/06/26 05:07:32;;;;;;;31.10;15.00;;;;;;;15.16;100.00;101361.13;5035699;28;20048;-48
2022/06/26 05:09:59;;;;;;;33.10;14.30;;;;;;;15.19;100.00;101373.38;5034761;28;20021;-47
2022/06/26 05:12:25;;;;;;;34.58;14.02;;;;;;;15.24;100.00;101374.53;5035670;28;20051;-47
2022/06/26 05:14:50;;;;;;;28.83;13.38;;;;;;;15.30;100.00;101373.81;5035667;28;20490;-46
2022/06/26 05:17:15;;;;;;;29.13;13.05;;;;;;;15.36;100.00;101382.16;5034840;28;20021;-45
2022/06/26 05:19:41;;;;;;;30.48;11.57;;;;;;;15.33;100.00;101379.88;5035519;28;20028;-47
2022/06/26 05:22:06;;;;;;;28.98;12.50;;;;;;;15.36;100.00;101380.34;5035025;28;20779;-49
2022/06/26 05:24:32;;;;;;;27.17;12.30;;;;;;;15.36;100.00;101384.88;5034474;28;20036;-49
2022/06/26 05:26:58;;;;;;;25.52;11.63;;;;;;;15.35;100.00;101372.44;5034937;28;20032;-51
2022/06/26 05:29:24;;;;;;;29.55;12.10;;;;;;;15.39;100.00;101371.06;5016923;28;20491;-49
2022/06/26 05:31:50;;;;;;;26.90;12.07;;;;;;;15.41;100.00;101375.25;5035294;28;20429;-47
2022/06/26 05:34:15;;;;;;;28.00;12.05;;;;;;;15.40;100.00;101368.19;5035746;28;20264;-48
2022/06/26 05:36:41;;;;;;;24.80;11.52;;;;;;;15.49;100.00;101368.94;5034588;28;20100;-48
2022/06/26 05:39:06;;;;;;;24.23;11.60;;;;;;;15.58;100.00;101367.03;5034313;28;20171;-47
2022/06/26 05:41:32;;;;;;;27.67;11.65;;;;;;;15.62;100.00;101366.50;5034276;28;20024;-46
2022/06/26 05:43:57;;;;;;;22.73;11.20;;;;;;;15.70;100.00;101376.38;5034928;28;20039;-46
2022/06/26 05:46:23;;;;;;;30.20;12.20;;;;;;;15.76;100.00;101383.72;5034357;28;20089;-48
2022/06/26 05:48:48;;;;;;;26.60;11.70;;;;;;;15.80;100.00;101392.28;5032556;28;20121;-48
2022/06/26 05:51:14;;;;;;;25.98;11.90;;;;;;;15.81;100.00;101396.66;5024225;28;20450;-48
2022/06/26 05:53:39;;;;;;;26.45;11.52;;;;;;;15.86;100.00;101407.72;5035198;28;20029;-46
2022/06/26 05:56:05;;;;;;;27.30;12.48;;;;;;;15.88;100.00;101410.25;5032752;28;20614;-46
2022/06/26 05:58:31;;;;;;;31.17;11.55;;;;;;;16.03;100.00;101411.94;5035502;28;20599;-49
2022/06/26 06:00:56;;;;;;;22.90;12.15;;;;;;;16.18;100.00;101413.81;5034147;28;20048;-47
2022/06/26 06:03:21;;;;;;;30.95;11.93;;;;;;;16.16;100.00;101418.56;5034813;28;20027;-48
2022/06/26 06:05:47;;;;;;;35.13;12.52;;;;;;;16.23;100.00;101422.19;5034330;28;20361;-47
2022/06/26 06:08:12;;;;;;;27.80;11.68;;;;;;;16.31;100.00;101422.09;5016474;28;20491;-47
2022/06/26 06:10:37;;;;;;;26.98;12.63;;;;;;;16.36;100.00;101424.22;5034093;28;20025;-46
2022/06/26 06:13:03;;;;;;;30.73;11.68;;;;;;;16.32;100.00;101439.09;5034594;28;20463;-47
2022/06/26 06:15:28;;;;;;;34.38;12.65;;;;;;;16.31;100.00;101435.59;5034175;28;20531;-48
2022/06/26 06:17:54;;;;;;;31.33;11.95;;;;;;;16.41;100.00;101430.75;5034305;28;20029;-50
2022/06/26 06:20:21;;;;;;;29.55;10.98;;;;;;;16.64;100.00;101432.50;5034920;28;20941;-45
2022/06/26 06:22:51;;;;;;;24.33;11.02;;;;;;;16.74;100.00;101427.66;5016128;28;20032;-47
2022/06/26 06:25:16;;;;;;;30.85;10.73;;;;;;;16.95;100.00;101428.78;5032890;28;20692;-49
2022/06/26 06:27:41;;;;;;;23.92;11.40;;;;;;;17.16;100.00;101433.41;5034279;28;20274;-46
2022/06/26 06:30:09;;;;;;;24.65;10.32;;;;;;;17.29;100.00;101435.41;5034429;28;20028;-47
2022/06/26 06:32:35;;;;;;;22.92;10.25;;;;;;;17.45;100.00;101423.53;5034505;28;20458;-45
2022/06/26 06:35:00;;;;;;;26.17;10.25;;;;;;;17.51;100.00;101438.94;5034239;28;20111;-48
2022/06/26 06:37:25;;;;;;;23.80;10.30;;;;;;;17.50;100.00;101429.19;5015738;28;20063;-48
2022/06/26 06:39:52;;;;;;;28.63;10.65;;;;;;;17.45;100.00;101443.28;5033807;28;20044;-48
2022/06/26 06:42:17;;;;;;;25.30;10.43;;;;;;;17.44;100.00;101446.16;5016084;28;20458;-45
2022/06/26 06:44:42;;;;;;;25.60;10.52;;;;;;;17.47;100.00;101453.88;5016012;28;20837;-49
2022/06/26 06:47:08;;;;;;;29.38;11.15;;;;;;;17.49;100.00;101449.13;5015703;28;20025;-46
2022/06/26 06:49:33;;;;;;;26.85;10.55;;;;;;;17.63;100.00;101459.00;5025249;28;20144;-48
2022/06/26 06:51:58;;;;;;;28.70;11.57;;;;;;;17.63;100.00;101469.00;5029282;28;20056;-47
2022/06/26 06:54:25;;;;;;;27.17;11.82;;;;;;;17.51;100.00;101474.91;5033404;28;20128;-45
2022/06/26 06:56:50;;;;;;;26.08;11.23;;;;;;;17.46;100.00;101479.19;5033707;28;20043;-47
2022/06/26 06:59:16;;;;;;;26.33;12.07;;;;;;;17.46;100.00;101481.91;5037069;28;20024;-47
2022/06/26 07:01:41;;;;;;;32.60;12.57;;;;;;;17.54;100.00;101489.88;5037857;28;20036;-46
2022/06/26 07:04:07;;;;;;;27.65;11.77;;;;;;;17.70;100.00;101507.69;5038032;28;20020;-46
2022/06/26 07:06:32;;;;;;;31.20;12.07;;;;;;;17.68;100.00;101513.31;5037861;28;20029;-49
2022/06/26 07:08:58;;;;;;;25.33;11.68;;;;;;;17.74;100.00;101506.31;5036929;28;20024;-48
2022/06/26 07:11:23;;;;;;;28.75;11.70;;;;;;;17.81;100.00;101517.19;5037579;28;20112;-47
2022/06/26 07:13:49;;;;;;;24.40;11.02;;;;;;;17.94;100.00;101516.50;5039005;28;20371;-47
2022/06/26 07:16:14;;;;;;;28.20;11.40;;;;;;;18.07;100.00;101516.63;5037243;28;20135;-49
2022/06/26 07:18:39;;;;;;;25.65;10.70;;;;;;;18.17;100.00;101519.00;5038183;28;20424;-45
2022/06/26 07:21:05;;;;;;;24.67;9.75;;;;;;;18.22;100.00;101524.66;5036796;28;20068;-49
2022/06/26 07:23:31;;;;;;;27.08;11.00;;;;;;;18.17;100.00;101519.00;5038500;28;20020;-46
2022/06/26 07:25:56;;;;;;;30.05;10.50;;;;;;;18.10;100.00;101520.81;5037064;28;20037;-48
2022/06/26 07:28:22;;;;;;;26.05;10.25;;;;;;;18.03;100.00;101524.28;5037053;28;20021;-47
2022/06/26 07:30:48;;;;;;;34.05;11.00;;;;;;;18.10;100.00;101516.22;5037680;28;20151;-46
2022/06/26 07:35:58;;;;;;;26.38;10.45;;;;;;;18.29;100.00;101516.59;5037618;28;20126;-48
2022/06/26 07:38:23;;;;;;;23.10;9.73;;;;;;;18.27;100.00;101517.63;5036804;28;20063;-46
2022/06/26 07:40:49;;;;;;;26.15;10.05;;;;;;;18.41;100.00;101524.00;5036863;28;20028;-48
2022/06/26 07:43:14;;;;;;;25.98;10.02;;;;;;;18.50;100.00;101532.78;5037319;28;20067;-47
2022/06/26 07:45:39;;;;;;;24.50;9.73;;;;;;;18.53;100.00;101536.97;5036939;28;20032;-47
2022/06/26 07:48:05;;;;;;;27.08;10.65;;;;;;;18.55;100.00;101534.88;5036651;28;20461;-49
2022/06/26 07:50:31;;;;;;;24.98;9.57;;;;;;;18.42;100.00;101535.63;5023507;28;20131;-47
2022/06/26 07:52:56;;;;;;;24.58;10.00;;;;;;;18.21;100.00;101531.09;5037795;28;20051;-50
2022/06/26 07:55:21;;;;;;;22.52;10.20;;;;;;;18.17;100.00;101535.22;5017134;28;20045;-46
2022/06/26 07:57:46;;;;;;;26.83;10.00;;;;;;;18.09;100.00;101533.47;5032372;28;20033;-49
2022/06/26 08:00:12;;;;;;;24.35;8.90;;;;;;;18.02;100.00;101529.88;5029757;28;20036;-46
2022/06/26 08:02:39;;;;;;;22.20;9.68;;;;;;;17.94;100.00;101525.47;5036929;28;20036;-46
2022/06/26 08:05:04;;;;;;;28.40;9.30;;;;;;;18.00;100.00;101538.19;5037512;28;20028;-50
2022/06/26 08:07:30;;;;;;;20.00;8.93;;;;;;;18.05;100.00;101537.59;5036927;28;20156;-47
2022/06/26 08:09:55;;;;;;;23.67;9.20;;;;;;;18.16;100.00;101542.50;5034216;28;20467;-46
2022/06/26 08:12:20;;;;;;;20.10;8.43;;;;;;;18.17;100.00;101540.63;5037228;28;20369;-51
2022/06/26 08:14:45;;;;;;;18.08;8.45;;;;;;;18.30;100.00;101548.84;5037060;28;20052;-46
2022/06/26 08:17:11;;;;;;;21.50;9.25;;;;;;;18.25;100.00;101554.00;5036137;28;20029;-46
2022/06/26 08:19:36;;;;;;;21.23;9.00;;;;;;;18.14;100.00;101551.81;5018903;28;20513;-47
2022/06/26 08:22:02;;;;;;;22.13;9.50;;;;;;;18.07;100.00;101551.75;5036553;28;20430;-50
2022/06/26 08:24:28;;;;;;;22.63;9.43;;;;;;;18.05;100.00;101551.13;5035513;28;20090;-51
2022/06/26 08:26:54;;;;;;;24.15;8.85;;;;;;;17.97;100.00;101562.88;5036376;28;20520;-50
2022/06/26 08:29:19;;;;;;;26.45;9.35;;;;;;;17.94;100.00;101559.72;5036125;28;20103;-48
2022/06/26 08:31:45;;;;;;;19.80;9.02;;;;;;;17.89;100.00;101560.34;5018261;28;20043;-51
2022/06/26 08:34:10;;;;;;;22.45;8.77;;;;;;;17.93;100.00;101564.31;5036871;28;20104;-45
2022/06/26 08:36:38;;;;;;;19.75;8.77;;;;;;;17.93;100.00;101560.78;5036313;28;20170;-46
2022/06/26 08:39:04;;;;;;;21.30;9.35;;;;;;;18.03;100.00;101548.59;5035141;28;20488;-48
2022/06/26 08:41:33;;;;;;;18.65;8.95;;;;;;;18.20;100.00;101549.19;5035963;28;20270;-48
2022/06/26 08:43:58;;;;;;;20.40;9.05;;;;;;;18.33;100.00;101547.63;5035735;28;20468;-46
2022/06/26 08:46:27;;;;;;;16.85;8.60;;;;;;;18.33;100.00;101544.91;5035341;28;20048;-46
2022/06/26 08:48:53;;;;;;;17.77;9.13;;;;;;;18.27;100.00;101552.78;5032918;28;20070;-48
2022/06/26 08:51:19;;;;;;;20.15;9.07;;;;;;;18.18;100.00;101558.53;5026083;28;20226;-50
2022/06/26 08:53:45;;;;;;;23.08;9.75;;;;;;;18.10;100.00;101562.19;5034882;28;20029;-48
2022/06/26 08:56:11;;;;;;;20.60;9.23;;;;;;;18.15;100.00;101561.63;5014389;28;20179;-49
2022/06/26 08:58:36;;;;;;;21.73;8.65;;;;;;;18.16;100.00;101568.69;5016408;28;20029;-47
2022/06/26 09:01:04;;;;;;;18.77;9.15;;;;;;;18.12;100.00;101567.41;5014981;28;20033;-48
2022/06/26 09:03:29;;;;;;;17.98;8.73;;;;;;;18.20;100.00;101568.09;5016817;28;20025;-50
2022/06/26 09:05:54;;;;;;;15.23;8.30;;;;;;;18.21;100.00;101560.81;5015924;28;20044;-46
2022/06/26 09:08:21;;;;;;;16.30;8.50;;;;;;;18.13;100.00;101563.69;5015704;28;20400;-46
2022/06/26 09:10:48;;;;;;;25.70;8.98;;;;;;;18.03;100.00;101575.63;5014839;28;20415;-46
2022/06/26 09:13:14;;;;;;;15.52;8.20;;;;;;;17.93;100.00;101579.69;5016127;28;20183;-47
2022/06/26 09:15:40;;;;;;;19.90;9.27;;;;;;;17.93;100.00;101569.72;5015287;28;20043;-48
2022/06/26 09:18:09;;;;;;;18.15;8.80;;;;;;;17.87;100.00;101573.19;5015371;28;20033;-45
2022/06/26 09:20:36;;;;;;;18.77;8.00;;;;;;;17.91;100.00;101574.47;5015446;28;20380;-47
2022/06/26 09:23:03;;;;;;;17.25;7.95;;;;;;;18.02;100.00;101573.13;5014692;28;20017;-49
2022/06/26 09:25:40;;;;;;;20.13;8.00;;;;;;;18.19;100.00;101557.47;5015088;28;20029;-48
2022/06/26 09:28:14;;;;;;;15.52;7.47;;;;;;;18.30;100.00;101565.09;5015128;28;20096;-46
2022/06/26 09:30:58;;;;;;;15.52;7.22;;;;;;;18.48;100.00;101575.41;5015093;28;20310;-46
2022/06/26 09:33:35;;;;;;;15.82;6.88;;;;;;;18.69;100.00;101579.13;5002632;28;20520;-49
2022/06/26 09:36:02;;;;;;;16.80;7.90;;;;;;;18.91;100.00;101575.34;5015300;28;20066;-47
2022/06/26 09:38:30;;;;;;;13.25;7.03;;;;;;;19.00;100.00;101576.84;5015030;28;20121;-46
2022/06/26 09:41:04;;;;;;;17.90;6.90;;;;;;;19.03;100.00;101561.28;5015284;28;20103;-51
2022/06/26 09:43:33;;;;;;;17.85;6.95;;;;;;;18.93;100.00;101567.84;5015697;28;20465;-46
2022/06/26 09:46:01;;;;;;;15.32;6.47;;;;;;;18.99;100.00;101563.50;5014617;28;20198;-48
2022/06/26 09:48:27;;;;;;;12.73;6.10;;;;;;;19.12;100.00;101568.19;5015171;28;20049;-50
2022/06/26 09:50:53;;;;;;;20.70;6.40;;;;;;;19.12;100.00;101568.19;4999306;28;20154;-48
2022/06/26 09:53:20;;;;;;;12.10;6.32;;;;;;;19.01;100.00;101573.13;5012366;28;20021;-47
2022/06/26 09:55:47;;;;;;;17.15;7.03;;;;;;;18.98;100.00;101580.81;5028126;28;20113;-49
2022/06/26 09:58:14;;;;;;;21.13;6.45;;;;;;;18.95;100.00;101576.63;5032589;28;20044;-49
2022/06/26 10:00:41;;;;;;;16.67;6.70;;;;;;;18.90;100.00;101581.78;5033872;28;20134;-46
2022/06/26 10:08:41;;;;;;;13.57;7.03;;;;;;;19.18;100.00;101591.75;5032965;28;20059;-45
2022/06/26 10:11:07;;;;;;;13.50;6.70;;;;;;;19.15;100.00;101589.44;5032710;28;20099;-49
2022/06/26 10:13:34;;;;;;;15.32;6.80;;;;;;;19.21;100.00;101591.34;5033139;28;20564;-48
2022/06/26 10:16:10;;;;;;;15.77;7.47;;;;;;;19.43;100.00;101588.53;5026375;28;20025;-48
2022/06/26 10:19:05;;;;;;;16.75;6.93;;;;;;;19.36;100.00;101596.63;5031013;28;20024;-51
2022/06/26 10:21:38;;;;;;;10.20;6.70;;;;;;;19.22;99.53;101595.72;5028298;28;20025;-47
2022/06/26 10:24:04;;;;;;;15.77;7.10;;;;;;;19.29;100.00;101603.88;5031144;28;20032;-47
2022/06/26 10:26:31;;;;;;;18.25;7.90;;;;;;;19.28;100.00;101610.31;5013360;28;20025;-49
2022/06/26 10:28:57;;;;;;;12.85;6.57;;;;;;;19.35;99.83;101616.63;5032682;28;20025;-49
2022/06/26 10:31:22;;;;;;;13.25;6.65;;;;;;;19.54;99.69;101615.88;5027890;28;20044;-48
2022/06/26 10:33:48;;;;;;;13.02;5.50;;;;;;;19.69;93.93;101613.03;5014348;28;20032;-49
2022/06/26 10:36:24;;;;;;;11.65;5.50;;;;;;;19.94;95.53;101607.06;5028051;28;20024;-47
2022/06/26 10:38:49;;;;;;;15.77;5.30;;;;;;;19.96;94.82;101602.31;5031087;28;20471;-47
2022/06/26 10:44:06;;;;;;;12.38;6.03;;;;;;;19.83;95.36;101604.97;5032561;28;20059;-46
2022/06/26 10:46:39;;;;;;;;;;;;;;;20.01;95.37;101604.38;5017662;28;20439;-47
2022/06/26 10:49:07;;;;;;;10.30;4.55;;;;;;;19.99;90.50;101606.47;5019376;28;19968;-48
2022/06/26 10:51:37;;;;;;;10.23;4.07;;;;;;;20.19;90.61;101601.91;5007652;28;20043;-49
2022/06/26 10:54:02;;;;;;;10.13;3.25;;;;;;;20.38;86.70;101602.97;5033150;28;20013;-46
2022/06/26 10:56:29;;;;;;;5.72;3.10;;;;;;;20.88;89.46;101607.19;5033902;28;20370;-47
2022/06/26 10:59:01;;;;;;;13.70;4.65;;;;;;;21.29;85.75;101601.44;5022213;28;20060;-48
2022/06/26 11:01:29;;;;;;;8.38;3.40;;;;;;;21.57;84.28;101608.47;5015581;28;20075;-49
2022/06/26 11:03:55;;;;;;;8.23;3.45;;;;;;;21.75;82.69;101615.91;5034128;28;20036;-49
2022/06/26 11:06:26;;;;;;;10.88;3.20;;;;;;;21.92;83.44;101618.97;5033920;28;20040;-50
2022/06/26 11:08:52;;;;;;;7.80;3.00;;;;;;;21.79;80.18;101622.56;5015269;28;20021;-46
2022/06/26 11:11:31;;;;;;;12.70;3.17;;;;;;;21.84;80.05;101608.34;5034040;28;20021;-49
2022/06/26 11:14:05;;;;;;;5.03;2.92;;;;;;;21.91;79.66;101614.56;5033829;28;20033;-47
2022/06/26 11:16:36;;;;;;;7.32;2.90;;;;;;;21.90;80.12;101608.31;5033324;28;20127;-51